Time;durP1;ratioP1;P1;durP2;ratioP2;P2;SDS_P1;SDS_P2;PMS_P1;PMS_P2;Temp;Humidity;BMP_temperature;BMP_pressure;BME280_temperature;BME280_humidity;BME280_pressure;Samples;Min_cycle;Max_cycle;Signal;HPM_P1;HPM_P2
2021/04/26 00:00:08;;;;;;;8.37;7.37;;;;;19.90;101225.00;;;;2079732;28;20305;-67
2021/04/26 00:01:09;;;;;;;8.80;7.47;;;;;19.90;101226.00;;;;2079362;28;20945;-67
2021/04/26 00:02:09;;;;;;;7.43;6.00;;;;;19.70;101215.00;;;;2078633;28;20226;-67
2021/04/26 00:03:09;;;;;;;9.63;7.63;;;;;19.80;101228.00;;;;2078320;28;20221;-67
2021/04/26 00:04:10;;;;;;;8.03;7.07;;;;;19.80;101228.00;;;;2079659;28;20210;-67
2021/04/26 00:05:11;;;;;;;7.77;6.97;;;;;19.80;101222.00;;;;2079645;28;20252;-67
2021/04/26 00:06:12;;;;;;;8.30;7.40;;;;;19.80;101221.00;;;;2078765;28;20218;-66
2021/04/26 00:07:12;;;;;;;7.73;6.50;;;;;19.80;101219.00;;;;2075763;28;20752;-67
2021/04/26 00:08:12;;;;;;;7.87;6.90;;;;;19.80;101214.00;;;;2079434;28;20214;-67
2021/04/26 00:09:13;;;;;;;8.60;7.20;;;;;19.80;101216.00;;;;2079442;28;20688;-67
2021/04/26 00:10:13;;;;;;;8.40;7.10;;;;;19.80;101209.00;;;;2075868;28;20595;-67
2021/04/26 00:11:14;;;;;;;7.60;6.63;;;;;19.80;101217.00;;;;2079400;28;20276;-67
2021/04/26 00:12:14;;;;;;;7.80;6.70;;;;;19.80;101218.00;;;;2079830;28;20230;-67
2021/04/26 00:13:14;;;;;;;9.03;7.03;;;;;19.80;101210.00;;;;2079005;28;20226;-67
2021/04/26 00:14:15;;;;;;;7.67;6.40;;;;;19.80;101219.00;;;;2079806;28;20318;-67
2021/04/26 00:15:24;;;;;;;6.70;6.00;;;;;19.80;101229.00;;;;2078646;28;20221;-67
2021/04/26 00:16:24;;;;;;;7.93;6.80;;;;;19.80;101212.00;;;;2078461;28;20272;-67
2021/04/26 00:17:25;;;;;;;8.00;6.83;;;;;19.80;101222.00;;;;2079536;28;20276;-67
2021/04/26 00:18:25;;;;;;;7.17;6.20;;;;;19.80;101220.00;;;;2079230;28;21713;-67
2021/04/26 00:19:25;;;;;;;6.97;6.27;;;;;19.80;101217.00;;;;2078588;28;22020;-66
2021/04/26 00:20:27;;;;;;;8.80;6.67;;;;;19.80;101223.00;;;;2078645;28;20293;-66
2021/04/26 00:21:28;;;;;;;8.20;6.90;;;;;19.80;101218.00;;;;2079377;28;20831;-67
2021/04/26 00:22:28;;;;;;;7.57;5.73;;;;;19.80;101213.00;;;;2078927;28;20209;-67
2021/04/26 00:23:28;;;;;;;9.87;6.10;;;;;19.80;101211.00;;;;2077826;28;20233;-67
2021/04/26 00:24:29;;;;;;;6.33;5.70;;;;;19.80;101218.00;;;;2078851;28;20305;-66
2021/04/26 00:25:29;;;;;;;6.17;5.57;;;;;19.80;101210.00;;;;2077234;28;20720;-67
2021/04/26 00:26:30;;;;;;;9.27;6.40;;;;;19.80;101203.00;;;;2079696;28;20708;-67
2021/04/26 00:27:30;;;;;;;7.10;5.40;;;;;19.70;101207.00;;;;2079464;28;20256;-67
2021/04/26 00:28:30;;;;;;;6.70;5.97;;;;;19.70;101208.00;;;;2079520;28;20726;-67
2021/04/26 00:29:31;;;;;;;6.77;5.93;;;;;19.70;101211.00;;;;2079116;28;20712;-67
2021/04/26 00:30:31;;;;;;;5.83;5.20;;;;;19.70;101205.00;;;;2078800;28;20929;-67
2021/04/26 00:31:32;;;;;;;6.20;5.60;;;;;19.70;101215.00;;;;2062650;28;20721;-67
2021/04/26 00:32:32;;;;;;;9.23;5.87;;;;;19.70;101211.00;;;;2070926;28;20630;-67
2021/04/26 00:33:32;;;;;;;7.70;5.23;;;;;19.70;101210.00;;;;2078870;28;20202;-66
2021/04/26 00:34:33;;;;;;;6.67;5.90;;;;;19.70;101208.00;;;;2071545;28;20293;-67
2021/04/26 00:35:33;;;;;;;6.10;5.07;;;;;19.70;101206.00;;;;2078275;28;20268;-67
2021/04/26 00:36:33;;;;;;;5.47;4.97;;;;;19.70;101205.00;;;;2079353;28;20696;-67
2021/04/26 00:37:34;;;;;;;7.10;5.33;;;;;19.70;101206.00;;;;2079150;28;20577;-66
2021/04/26 00:38:34;;;;;;;7.23;5.50;;;;;19.70;101205.00;;;;2078925;28;21093;-67
2021/04/26 00:39:34;;;;;;;5.90;5.40;;;;;19.70;101197.00;;;;2078395;28;20794;-67
2021/04/26 00:40:35;;;;;;;6.10;5.50;;;;;19.70;101202.00;;;;2079232;28;20915;-67
2021/04/26 00:41:35;;;;;;;5.87;4.80;;;;;19.70;101193.00;;;;2078814;28;20724;-67
2021/04/26 00:42:36;;;;;;;6.67;5.30;;;;;19.70;101191.00;;;;2078984;28;20726;-67
2021/04/26 00:43:36;;;;;;;7.77;5.40;;;;;19.70;101196.00;;;;2075877;28;20588;-67
2021/04/26 00:44:36;;;;;;;6.43;5.10;;;;;19.70;101196.00;;;;2079213;28;20216;-67
2021/04/26 00:45:37;;;;;;;5.57;5.00;;;;;19.70;101191.00;;;;2078657;28;20218;-67
2021/04/26 00:46:37;;;;;;;5.87;4.67;;;;;19.70;101193.00;;;;2078773;28;20230;-67
2021/04/26 00:47:41;;;;;;;6.93;5.80;;;;;19.70;101190.00;;;;2078731;28;20225;-67
2021/04/26 00:48:42;;;;;;;5.38;4.88;;;;;19.70;101192.00;;;;2079628;28;20229;-67
2021/04/26 00:49:42;;;;;;;5.45;4.95;;;;;19.70;101192.00;;;;2076426;28;20214;-67
2021/04/26 00:50:42;;;;;;;6.07;4.63;;;;;19.70;101190.00;;;;2078779;28;20245;-67
2021/04/26 00:51:43;;;;;;;6.43;5.37;;;;;19.70;101190.00;;;;2070487;28;20211;-67
2021/04/26 00:52:43;;;;;;;7.53;5.37;;;;;19.60;101188.00;;;;2078620;28;20210;-67
2021/04/26 00:53:44;;;;;;;6.30;5.20;;;;;19.60;101185.00;;;;2078795;28;20268;-67
2021/04/26 00:54:44;;;;;;;5.30;4.80;;;;;19.60;101185.00;;;;2078743;28;20787;-67
2021/04/26 00:55:45;;;;;;;5.20;4.70;;;;;19.60;101184.00;;;;2078478;28;20237;-67
2021/04/26 00:56:46;;;;;;;5.90;4.97;;;;;19.60;101180.00;;;;2062356;28;20222;-67
2021/04/26 00:57:46;;;;;;;5.80;5.03;;;;;19.60;101179.00;;;;2070285;28;20206;-67
2021/04/26 00:58:47;;;;;;;5.83;5.20;;;;;19.60;101188.00;;;;2078453;28;20301;-67
2021/04/26 00:59:47;;;;;;;5.33;4.27;;;;;19.60;101185.00;;;;2078577;28;20605;-67
2021/04/26 01:00:48;;;;;;;6.20;5.17;;;;;19.60;101184.00;;;;2078666;28;20286;-67
2021/04/26 01:01:48;;;;;;;5.57;4.60;;;;;19.60;101178.00;;;;2079440;28;20217;-67
2021/04/26 01:02:48;;;;;;;6.13;4.70;;;;;19.60;101184.00;;;;2079247;28;20242;-67
2021/04/26 01:03:49;;;;;;;5.80;5.20;;;;;19.60;101190.00;;;;2078500;28;20275;-67
2021/04/26 01:04:49;;;;;;;5.97;4.47;;;;;19.60;101185.00;;;;2078571;28;20277;-67
2021/04/26 01:05:49;;;;;;;6.23;4.93;;;;;19.60;101182.00;;;;2078103;28;20646;-67
2021/04/26 01:06:50;;;;;;;5.40;4.90;;;;;19.60;101176.00;;;;2078772;28;20316;-67
2021/04/26 01:07:50;;;;;;;6.03;4.43;;;;;19.60;101179.00;;;;2078391;28;20213;-67
2021/04/26 01:08:50;;;;;;;5.93;5.00;;;;;19.60;101179.00;;;;2077932;28;20210;-67
2021/04/26 01:09:51;;;;;;;5.33;4.83;;;;;19.60;101177.00;;;;2078061;28;20288;-67
2021/04/26 01:10:51;;;;;;;4.97;4.47;;;;;19.60;101183.00;;;;2078504;28;20230;-67
2021/04/26 01:12:13;;;;;;;6.30;5.07;;;;;19.60;101178.00;;;;2062932;28;20219;-67
2021/04/26 01:13:45;;;;;;;5.75;4.68;;;;;19.60;101179.00;;;;2064358;28;20219;-67
2021/04/26 01:14:50;;;;;;;5.30;4.70;;;;;19.60;101177.00;;;;2076816;28;20221;-67
2021/04/26 01:15:58;;;;;;;5.95;4.82;;;;;19.60;101173.00;;;;2073079;28;20214;-67
2021/04/26 01:17:02;;;;;;;5.30;4.50;;;;;19.60;101181.00;;;;2068329;28;20264;-67
2021/04/26 01:18:09;;;;;;;5.15;4.60;;;;;19.60;101182.00;;;;2070345;28;20223;-67
2021/04/26 01:19:54;;;;;;;4.25;3.85;;;;;19.60;101180.00;;;;2071204;28;20207;-67
2021/04/26 01:21:19;;;;;;;4.90;4.35;;;;;19.60;101179.00;;;;2073883;28;20206;-67
2021/04/26 01:22:28;;;;;;;5.13;4.22;;;;;19.40;101180.00;;;;2078742;28;20309;-67
2021/04/26 01:23:47;;;;;;;4.95;4.45;;;;;19.50;101183.00;;;;2078459;28;20341;-67
2021/04/26 01:25:20;;;;;;;8.60;4.72;;;;;19.50;101188.00;;;;2076443;28;20232;-67
2021/04/26 01:26:31;;;;;;;4.50;4.10;;;;;19.50;101177.00;;;;2066903;28;20225;-67
2021/04/26 01:27:34;;;;;;;5.07;4.60;;;;;19.50;101172.00;;;;2067822;28;20214;-67
2021/04/26 01:28:56;;;;;;;6.15;4.60;;;;;19.50;101171.00;;;;2078574;28;20225;-67
2021/04/26 01:30:10;;;;;;;5.40;4.10;;;;;19.50;101176.00;;;;2066479;28;20233;-67
2021/04/26 01:31:12;;;;;;;5.13;4.38;;;;;19.50;101177.00;;;;2056626;28;20301;-67
2021/04/26 01:32:23;;;;;;;5.72;4.32;;;;;19.50;101174.00;;;;2070520;28;20385;-66
2021/04/26 01:33:30;;;;;;;5.07;4.32;;;;;19.50;101174.00;;;;2057652;28;20238;-68
2021/04/26 01:34:30;;;;;;;4.63;4.22;;;;;19.50;101175.00;;;;2056228;28;20231;-67
2021/04/26 01:35:31;;;;;;;5.70;3.63;;;;;19.50;101176.00;;;;2062201;28;20226;-67
2021/04/26 01:36:31;;;;;;;4.70;4.00;;;;;19.50;101175.00;;;;2068828;28;20219;-67
2021/04/26 01:37:33;;;;;;;6.20;4.33;;;;;19.50;101172.00;;;;2062127;28;20243;-67
2021/04/26 01:38:38;;;;;;;5.15;4.03;;;;;19.50;101170.00;;;;2062217;28;20219;-67
2021/04/26 01:39:38;;;;;;;4.72;3.80;;;;;19.50;101172.00;;;;2065861;28;20211;-66
2021/04/26 01:40:42;;;;;;;4.43;3.77;;;;;19.50;101166.00;;;;2073359;28;20225;-66
2021/04/26 01:41:44;;;;;;;5.07;3.90;;;;;19.50;101165.00;;;;2075792;28;20228;-67
2021/04/26 01:42:46;;;;;;;4.70;3.88;;;;;19.50;101168.00;;;;2070597;28;20593;-67
2021/04/26 01:43:47;;;;;;;5.05;3.75;;;;;19.50;101161.00;;;;2068669;28;20222;-67
2021/04/26 01:44:47;;;;;;;4.33;3.93;;;;;19.50;101168.00;;;;2062034;28;20227;-66
2021/04/26 01:45:49;;;;;;;4.83;4.20;;;;;19.50;101170.00;;;;2061992;28;20917;-67
2021/04/26 01:46:49;;;;;;;4.68;3.92;;;;;19.50;101164.00;;;;2070137;28;20241;-67
2021/04/26 01:47:54;;;;;;;4.10;3.77;;;;;19.50;101167.00;;;;2059572;28;20222;-67
2021/04/26 01:48:54;;;;;;;4.30;3.80;;;;;19.50;101172.00;;;;2070813;28;20214;-67
2021/04/26 01:49:55;;;;;;;4.23;3.80;;;;;19.50;101170.00;;;;2070147;28;20214;-67
2021/04/26 01:50:58;;;;;;;4.73;3.87;;;;;19.50;101172.00;;;;2069904;28;20218;-67
2021/04/26 01:51:58;;;;;;;4.75;4.25;;;;;19.50;101171.00;;;;2078034;28;20213;-67
2021/04/26 01:52:59;;;;;;;5.63;4.43;;;;;19.50;101166.00;;;;2075808;28;20210;-67
2021/04/26 01:53:59;;;;;;;5.70;4.20;;;;;19.50;101171.00;;;;2061471;28;20210;-67
2021/04/26 01:55:00;;;;;;;4.13;3.73;;;;;19.40;101154.00;;;;2070015;28;20221;-67
2021/04/26 01:56:03;;;;;;;3.72;3.42;;;;;19.40;101168.00;;;;2058112;28;20701;-67
2021/04/26 01:57:04;;;;;;;4.70;3.90;;;;;19.50;101170.00;;;;2070508;28;20588;-66
2021/04/26 01:58:05;;;;;;;5.07;3.90;;;;;19.40;101163.00;;;;2069320;28;20224;-66
2021/04/26 01:59:05;;;;;;;4.80;4.40;;;;;19.40;101165.00;;;;2053938;28;20282;-67
2021/04/26 02:00:15;;;;;;;5.27;3.77;;;;;19.50;101171.00;;;;2062167;28;20218;-67
2021/04/26 02:01:17;;;;;;;4.32;3.67;;;;;19.50;101166.00;;;;2077981;28;20218;-66
2021/04/26 02:02:17;;;;;;;4.93;4.38;;;;;19.40;101162.00;;;;2078370;28;20214;-67
2021/04/26 02:03:25;;;;;;;4.10;3.70;;;;;19.50;101158.00;;;;2076684;28;20222;-67
2021/04/26 02:04:26;;;;;;;4.78;4.18;;;;;19.40;101157.00;;;;2075994;28;20624;-67
2021/04/26 02:05:27;;;;;;;4.15;3.72;;;;;19.40;101164.00;;;;2078320;28;20309;-67
2021/04/26 02:06:27;;;;;;;4.57;3.90;;;;;19.40;101164.00;;;;2078978;28;20241;-67
2021/04/26 02:07:27;;;;;;;4.23;3.80;;;;;19.40;101157.00;;;;2070350;28;20223;-67
2021/04/26 02:08:28;;;;;;;3.87;3.47;;;;;19.40;101148.00;;;;2053315;28;20208;-67
2021/04/26 02:09:29;;;;;;;4.33;3.90;;;;;19.40;101160.00;;;;2060963;28;20333;-67
2021/04/26 02:10:29;;;;;;;4.50;3.72;;;;;19.40;101168.00;;;;2061447;28;20227;-67
2021/04/26 02:11:30;;;;;;;4.40;3.60;;;;;19.40;101170.00;;;;2061765;28;20215;-67
2021/04/26 02:12:30;;;;;;;3.80;3.40;;;;;19.40;101173.00;;;;2061691;28;20305;-67
2021/04/26 02:13:30;;;;;;;4.50;3.23;;;;;19.40;101173.00;;;;2066399;28;20365;-67
2021/04/26 02:14:31;;;;;;;3.93;3.53;;;;;19.40;101167.00;;;;2061927;28;20687;-68
2021/04/26 02:15:31;;;;;;;5.00;4.20;;;;;19.40;101171.00;;;;2059739;28;20582;-68
2021/04/26 02:16:32;;;;;;;6.63;3.87;;;;;19.40;101164.00;;;;2068217;28;20605;-67
2021/04/26 02:17:32;;;;;;;4.53;4.00;;;;;19.40;101170.00;;;;2075621;28;20214;-67
2021/04/26 02:18:33;;;;;;;4.17;3.77;;;;;19.40;101172.00;;;;2078943;28;20210;-67
2021/04/26 02:19:34;;;;;;;3.95;3.55;;;;;19.40;101165.00;;;;2078685;28;25479;-67
2021/04/26 02:20:34;;;;;;;4.30;3.60;;;;;19.40;101164.00;;;;2078759;28;20295;-67
2021/04/26 02:21:34;;;;;;;3.87;3.50;;;;;19.40;101161.00;;;;2078165;28;20222;-67
2021/04/26 02:22:35;;;;;;;4.43;4.03;;;;;19.40;101154.00;;;;2070335;28;20301;-67
2021/04/26 02:23:36;;;;;;;4.00;3.53;;;;;19.40;101153.00;;;;2069299;28;20316;-68
2021/04/26 02:24:36;;;;;;;5.63;4.38;;;;;19.40;101155.00;;;;2078223;28;20225;-67
2021/04/26 02:25:37;;;;;;;4.57;4.00;;;;;19.40;101163.00;;;;2078953;28;20768;-67
2021/04/26 02:26:37;;;;;;;4.73;4.27;;;;;19.40;101156.00;;;;2077760;28;20289;-67
2021/04/26 02:27:37;;;;;;;4.67;4.10;;;;;19.40;101153.00;;;;2078105;28;20214;-68
2021/04/26 02:28:38;;;;;;;4.10;3.70;;;;;19.40;101151.00;;;;2078765;28;20218;-67
2021/04/26 02:29:38;;;;;;;3.40;3.10;;;;;19.40;101151.00;;;;2079373;28;20228;-68
2021/04/26 02:30:41;;;;;;;4.40;4.00;;;;;19.40;101154.00;;;;2080496;28;20241;-68
2021/04/26 02:31:44;;;;;;;4.85;3.70;;;;;19.40;101143.00;;;;2080613;28;20740;-67
2021/04/26 02:33:14;;;;;;;5.10;3.72;;;;;19.30;101150.00;;;;2076129;28;20296;-68
2021/04/26 02:34:25;;;;;;;4.30;3.67;;;;;19.30;101153.00;;;;2076284;28;20221;-67
2021/04/26 02:35:34;;;;;;;4.85;3.88;;;;;19.30;101141.00;;;;2072838;28;20256;-68
2021/04/26 02:36:36;;;;;;;4.25;3.85;;;;;19.30;101142.00;;;;2073115;28;21016;-66
2021/04/26 02:37:59;;;;;;;4.28;3.78;;;;;19.30;101139.00;;;;2072889;28;20728;-66
2021/04/26 02:39:00;;;;;;;4.25;3.85;;;;;19.30;101133.00;;;;2075054;28;20218;-66
2021/04/26 02:40:06;;;;;;;3.35;2.90;;;;;19.30;101134.00;;;;2079994;28;20206;-67
2021/04/26 02:41:08;;;;;;;4.85;3.40;;;;;19.30;101136.00;;;;2080563;28;20611;-66
2021/04/26 02:42:08;;;;;;;4.13;3.63;;;;;19.30;101134.00;;;;2076945;28;20281;-67
2021/04/26 02:43:09;;;;;;;4.13;3.40;;;;;19.30;101134.00;;;;2071909;28;20296;-67
2021/04/26 02:44:23;;;;;;;4.13;3.50;;;;;19.30;101136.00;;;;2062690;28;20211;-67
2021/04/26 02:45:26;;;;;;;4.95;3.53;;;;;19.30;101133.00;;;;2066490;28;20278;-67
2021/04/26 02:46:27;;;;;;;3.95;3.55;;;;;19.30;101135.00;;;;2072144;28;20207;-67
2021/04/26 02:47:28;;;;;;;4.23;3.17;;;;;19.30;101133.00;;;;2071644;28;20717;-67
2021/04/26 02:48:28;;;;;;;3.93;3.53;;;;;19.30;101127.00;;;;2079428;28;20460;-67
2021/04/26 02:49:29;;;;;;;5.23;3.90;;;;;19.30;101132.00;;;;2068451;28;20210;-67
2021/04/26 02:50:30;;;;;;;3.50;3.20;;;;;19.30;101122.00;;;;2063263;28;20706;-67
2021/04/26 02:51:31;;;;;;;4.43;3.53;;;;;19.30;101115.00;;;;2070163;28;20453;-66
2021/04/26 02:52:32;;;;;;;4.07;3.40;;;;;19.30;101117.00;;;;2067693;28;20309;-67
2021/04/26 02:53:33;;;;;;;3.93;3.30;;;;;19.30;101126.00;;;;2071003;28;20226;-67
2021/04/26 02:54:33;;;;;;;3.87;3.47;;;;;19.30;101121.00;;;;2071397;28;20199;-67
2021/04/26 02:55:33;;;;;;;3.97;3.50;;;;;19.30;101119.00;;;;2071297;28;20802;-67
2021/04/26 02:56:35;;;;;;;4.07;3.33;;;;;19.30;101119.00;;;;2071445;28;20680;-67
2021/04/26 02:57:35;;;;;;;6.05;3.97;;;;;19.30;101125.00;;;;2071274;28;20617;-67
2021/04/26 02:58:36;;;;;;;4.37;3.83;;;;;19.30;101117.00;;;;2079543;28;20217;-67
2021/04/26 02:59:37;;;;;;;4.23;3.83;;;;;19.30;101122.00;;;;2079601;28;20802;-67
2021/04/26 03:00:38;;;;;;;4.60;3.60;;;;;19.30;101115.00;;;;2079170;28;20301;-66
2021/04/26 03:01:41;;;;;;;5.10;3.13;;;;;19.30;101117.00;;;;2079355;28;20222;-67
2021/04/26 03:02:42;;;;;;;5.10;3.55;;;;;19.30;101117.00;;;;2075742;28;20225;-66
2021/04/26 03:03:42;;;;;;;3.93;3.53;;;;;19.30;101111.00;;;;2079147;28;20229;-67
2021/04/26 03:04:43;;;;;;;4.10;3.50;;;;;19.30;101117.00;;;;2079573;28;20608;-67
2021/04/26 03:05:43;;;;;;;3.70;3.40;;;;;19.30;101074.00;;;;2079761;28;20941;-67
2021/04/26 03:06:44;;;;;;;4.00;3.57;;;;;19.30;101114.00;;;;2071280;28;20648;-66
2021/04/26 03:07:44;;;;;;;5.00;3.47;;;;;19.30;101110.00;;;;2063110;28;20585;-67
2021/04/26 03:08:46;;;;;;;4.13;3.23;;;;;19.30;101122.00;;;;2068245;28;20453;-67
2021/04/26 03:09:46;;;;;;;4.72;3.70;;;;;19.30;101116.00;;;;2077681;28;20360;-67
2021/04/26 03:10:47;;;;;;;3.50;3.20;;;;;19.30;101115.00;;;;2068120;28;20273;-67
2021/04/26 03:11:47;;;;;;;3.70;3.33;;;;;19.30;101115.00;;;;2071545;28;20245;-67
2021/04/26 03:12:49;;;;;;;3.60;3.30;;;;;19.30;101117.00;;;;2071216;28;20728;-67
2021/04/26 03:13:49;;;;;;;5.03;3.80;;;;;19.30;101116.00;;;;2063033;28;20230;-67
2021/04/26 03:14:50;;;;;;;4.07;3.60;;;;;19.20;101109.00;;;;2063427;28;20219;-67
2021/04/26 03:15:50;;;;;;;3.53;3.23;;;;;19.20;101107.00;;;;2079540;28;20221;-67
2021/04/26 03:16:51;;;;;;;3.87;3.57;;;;;19.20;101117.00;;;;2080021;28;20234;-67
2021/04/26 03:17:52;;;;;;;3.30;3.08;;;;;19.20;101113.00;;;;2079854;28;20569;-67
2021/04/26 03:18:52;;;;;;;3.93;3.50;;;;;19.20;101112.00;;;;2079500;28;20244;-67
2021/04/26 03:19:53;;;;;;;4.90;3.60;;;;;19.20;101119.00;;;;2071321;28;20236;-67
2021/04/26 03:20:54;;;;;;;4.30;3.90;;;;;19.20;101099.00;;;;2071073;28;20218;-67
2021/04/26 03:21:54;;;;;;;3.80;3.50;;;;;19.20;101105.00;;;;2070924;28;20356;-66
2021/04/26 03:22:54;;;;;;;4.13;3.50;;;;;19.20;101111.00;;;;2063174;28;20211;-66
2021/04/26 03:23:55;;;;;;;3.70;3.40;;;;;19.20;101106.00;;;;2054193;28;20295;-66
2021/04/26 03:24:56;;;;;;;3.57;3.27;;;;;19.20;101099.00;;;;2062999;28;20215;-66
2021/04/26 03:25:57;;;;;;;4.30;3.67;;;;;19.20;101096.00;;;;2070774;28;20450;-66
2021/04/26 03:26:57;;;;;;;3.60;3.30;;;;;19.20;101103.00;;;;2079356;28;20284;-67
2021/04/26 03:27:57;;;;;;;3.50;3.20;;;;;19.20;101088.00;;;;2063182;28;20211;-67
2021/04/26 03:28:58;;;;;;;4.23;2.93;;;;;19.20;101094.00;;;;2062997;28;20214;-67
2021/04/26 03:29:58;;;;;;;4.40;3.30;;;;;19.20;101096.00;;;;2069193;28;20241;-66
2021/04/26 03:30:59;;;;;;;3.67;3.37;;;;;19.20;101095.00;;;;2063170;28;20219;-66
2021/04/26 03:32:00;;;;;;;4.25;3.15;;;;;19.20;101088.00;;;;2079335;28;20221;-66
2021/04/26 03:33:00;;;;;;;3.67;3.37;;;;;19.20;101091.00;;;;2079339;28;20210;-67
2021/04/26 03:34:00;;;;;;;4.30;3.40;;;;;19.20;101093.00;;;;2062510;28;20204;-67
2021/04/26 03:35:01;;;;;;;3.63;3.33;;;;;19.20;101090.00;;;;2070574;28;20214;-66
2021/04/26 03:36:01;;;;;;;4.30;3.90;;;;;19.20;101091.00;;;;2079225;28;20261;-67
2021/04/26 03:37:02;;;;;;;3.67;3.37;;;;;19.20;101089.00;;;;2077102;28;20206;-66
2021/04/26 03:38:02;;;;;;;3.83;3.30;;;;;19.20;101084.00;;;;2079348;28;20213;-67
2021/04/26 03:39:04;;;;;;;7.70;3.60;;;;;19.20;101094.00;;;;2078481;28;20715;-67
2021/04/26 03:40:06;;;;;;;3.65;3.30;;;;;19.20;101093.00;;;;2071399;28;20628;-67
2021/04/26 03:41:06;;;;;;;4.07;3.78;;;;;19.20;101096.00;;;;2069927;28;20245;-67
2021/04/26 03:42:07;;;;;;;3.53;3.23;;;;;19.20;101087.00;;;;2078949;28;20234;-67
2021/04/26 03:43:07;;;;;;;3.47;2.87;;;;;19.20;101101.00;;;;2078991;28;20225;-67
2021/04/26 03:44:12;;;;;;;3.73;3.30;;;;;19.20;101094.00;;;;2078488;28;20213;-67
2021/04/26 03:45:16;;;;;;;3.28;2.97;;;;;19.10;101094.00;;;;2075288;28;20209;-67
2021/04/26 03:46:16;;;;;;;3.90;3.25;;;;;19.10;101096.00;;;;2071393;28;20223;-67
2021/04/26 03:47:16;;;;;;;3.83;3.17;;;;;19.10;101095.00;;;;2071077;28;20265;-67
2021/04/26 03:48:17;;;;;;;3.27;2.97;;;;;19.10;101092.00;;;;2078992;28;20218;-66
2021/04/26 03:49:18;;;;;;;3.80;3.10;;;;;19.10;101099.00;;;;2079873;28;20232;-68
2021/04/26 03:50:19;;;;;;;3.30;3.00;;;;;19.10;101092.00;;;;2076885;28;20911;-67
2021/04/26 03:51:19;;;;;;;3.35;2.90;;;;;19.10;101095.00;;;;2078804;28;20235;-67
2021/04/26 03:52:19;;;;;;;4.00;3.47;;;;;19.10;101090.00;;;;2079344;28;20689;-67
2021/04/26 03:53:20;;;;;;;3.70;3.23;;;;;19.20;101090.00;;;;2078273;28;20684;-67
2021/04/26 03:54:20;;;;;;;3.50;3.20;;;;;19.10;101092.00;;;;2080064;28;20672;-67
2021/04/26 03:55:22;;;;;;;3.27;2.97;;;;;19.10;101092.00;;;;2079124;28;20217;-67
2021/04/26 03:56:22;;;;;;;3.90;3.50;;;;;19.10;101096.00;;;;2079076;28;20225;-67
2021/04/26 03:57:22;;;;;;;3.53;3.20;;;;;19.10;101093.00;;;;2079975;28;20245;-67
2021/04/26 03:58:23;;;;;;;4.40;3.27;;;;;19.10;101089.00;;;;2079962;28;20681;-67
2021/04/26 03:59:23;;;;;;;4.13;3.10;;;;;19.10;101092.00;;;;2079845;28;20723;-67
2021/04/26 04:00:24;;;;;;;3.90;3.50;;;;;19.10;101086.00;;;;2079821;28;20233;-67
2021/04/26 04:01:24;;;;;;;3.90;3.50;;;;;19.10;101080.00;;;;2078078;28;20787;-67
2021/04/26 04:02:28;;;;;;;3.50;3.20;;;;;19.10;101083.00;;;;2078912;28;20274;-67
2021/04/26 04:03:28;;;;;;;4.15;3.47;;;;;19.10;101080.00;;;;2079205;28;20233;-67
2021/04/26 04:04:29;;;;;;;3.80;2.90;;;;;19.10;101078.00;;;;2079397;28;20206;-67
2021/04/26 04:05:29;;;;;;;3.63;3.33;;;;;19.10;101068.00;;;;2079670;28;20297;-67
2021/04/26 04:06:31;;;;;;;3.63;3.10;;;;;19.10;101081.00;;;;2078608;28;20246;-67
2021/04/26 04:07:32;;;;;;;3.88;3.30;;;;;19.10;101070.00;;;;2064933;28;20223;-65
2021/04/26 04:08:33;;;;;;;4.15;3.75;;;;;19.10;101078.00;;;;2056286;28;20786;-66
2021/04/26 04:09:34;;;;;;;3.93;3.27;;;;;19.10;101077.00;;;;2064753;28;20305;-66
2021/04/26 04:10:34;;;;;;;4.20;3.20;;;;;19.10;101070.00;;;;2077838;28;20218;-66
2021/04/26 04:11:34;;;;;;;3.60;3.30;;;;;19.10;101074.00;;;;2079810;28;20460;-66
2021/04/26 04:12:35;;;;;;;3.97;3.00;;;;;19.10;101075.00;;;;2079681;28;20218;-66
2021/04/26 04:13:35;;;;;;;4.70;3.87;;;;;19.10;101077.00;;;;2078206;28;20222;-67
2021/04/26 04:14:36;;;;;;;3.70;2.93;;;;;19.10;101073.00;;;;2079248;28;20245;-67
2021/04/26 04:15:36;;;;;;;4.37;3.27;;;;;19.10;101074.00;;;;2079364;28;20222;-67
2021/04/26 04:16:36;;;;;;;3.50;3.07;;;;;19.10;101078.00;;;;2079598;28;20252;-67
2021/04/26 04:17:37;;;;;;;4.03;2.93;;;;;19.10;101080.00;;;;2079861;28;20229;-66
2021/04/26 04:18:38;;;;;;;4.22;3.38;;;;;19.10;101081.00;;;;2079121;28;20683;-66
2021/04/26 04:19:38;;;;;;;4.50;3.33;;;;;19.10;101080.00;;;;2078189;28;20329;-66
2021/04/26 04:20:38;;;;;;;3.23;2.90;;;;;19.10;101079.00;;;;2079600;28;20273;-65
2021/04/26 04:21:39;;;;;;;3.83;3.23;;;;;19.10;101079.00;;;;2079368;28;20206;-67
2021/04/26 04:22:39;;;;;;;3.57;3.10;;;;;19.10;101083.00;;;;2079656;28;20305;-66
2021/04/26 04:23:39;;;;;;;3.27;2.93;;;;;19.10;101084.00;;;;2079145;28;20689;-67
2021/04/26 04:24:40;;;;;;;3.40;3.10;;;;;19.10;101078.00;;;;2079352;28;20264;-66
2021/04/26 04:25:40;;;;;;;4.40;3.73;;;;;19.10;101082.00;;;;2079738;28;20352;-67
2021/04/26 04:26:40;;;;;;;3.50;2.87;;;;;19.10;101081.00;;;;2079654;28;20213;-66
2021/04/26 04:27:41;;;;;;;3.20;2.90;;;;;19.10;101082.00;;;;2078656;28;20237;-67
2021/04/26 04:28:41;;;;;;;3.50;3.13;;;;;19.10;101083.00;;;;2070775;28;20709;-67
2021/04/26 04:29:41;;;;;;;4.07;3.17;;;;;19.10;101087.00;;;;2074750;28;20218;-66
2021/04/26 04:30:42;;;;;;;3.30;3.00;;;;;19.10;101083.00;;;;2076408;28;20313;-66
2021/04/26 04:31:42;;;;;;;4.90;3.50;;;;;19.10;101085.00;;;;2078899;28;20214;-67
2021/04/26 04:32:42;;;;;;;3.47;3.17;;;;;19.10;101088.00;;;;2078846;28;20229;-67
2021/04/26 04:33:43;;;;;;;3.90;3.43;;;;;19.00;101087.00;;;;2086545;28;20213;-67
2021/04/26 04:34:43;;;;;;;3.57;3.20;;;;;19.00;101092.00;;;;2086760;28;20205;-67
2021/04/26 04:35:44;;;;;;;4.50;3.37;;;;;19.00;101078.00;;;;2078742;28;20206;-67
2021/04/26 04:36:44;;;;;;;3.27;2.97;;;;;19.00;101083.00;;;;2078695;28;20280;-67
2021/04/26 04:37:44;;;;;;;3.47;3.00;;;;;19.00;101090.00;;;;2075512;28;20260;-67
2021/04/26 04:38:45;;;;;;;3.87;3.20;;;;;19.00;101106.00;;;;2079276;28;20216;-67
2021/04/26 04:39:45;;;;;;;3.90;3.33;;;;;19.00;101085.00;;;;2079375;28;20868;-66
2021/04/26 04:40:45;;;;;;;3.23;2.93;;;;;19.00;101085.00;;;;2079498;28;20693;-67
2021/04/26 04:41:46;;;;;;;3.47;3.10;;;;;18.80;101092.00;;;;2079353;28;20704;-67
2021/04/26 04:42:46;;;;;;;5.23;3.20;;;;;19.00;101089.00;;;;2079457;28;20207;-67
2021/04/26 04:43:46;;;;;;;3.53;3.23;;;;;19.00;101085.00;;;;2078723;28;20237;-66
2021/04/26 04:44:47;;;;;;;3.20;2.90;;;;;19.00;101094.00;;;;2079609;28;20431;-68
2021/04/26 04:45:47;;;;;;;3.00;2.80;;;;;19.00;101100.00;;;;2079287;28;20221;-67
2021/04/26 04:46:47;;;;;;;4.30;3.43;;;;;19.00;101091.00;;;;2078052;28;20602;-66
2021/04/26 04:47:48;;;;;;;3.60;3.17;;;;;19.00;101087.00;;;;2079198;28;20226;-67
2021/04/26 04:48:48;;;;;;;4.83;3.20;;;;;19.00;101082.00;;;;2079550;28;20229;-66
2021/04/26 04:49:48;;;;;;;3.60;3.30;;;;;19.00;101086.00;;;;2078906;28;20700;-67
2021/04/26 04:50:49;;;;;;;3.07;2.70;;;;;19.00;101083.00;;;;2079258;28;20218;-66
2021/04/26 04:51:49;;;;;;;3.70;3.40;;;;;19.00;101083.00;;;;2077946;28;20213;-66
2021/04/26 04:52:50;;;;;;;3.00;2.80;;;;;19.00;101087.00;;;;2078615;28;20220;-67
2021/04/26 04:53:50;;;;;;;2.80;2.60;;;;;19.00;101091.00;;;;2076215;28;20584;-67
2021/04/26 04:54:50;;;;;;;3.47;3.17;;;;;18.70;101089.00;;;;2078115;28;20286;-66
2021/04/26 04:55:51;;;;;;;4.10;3.20;;;;;19.00;101094.00;;;;2078672;28;20214;-66
2021/04/26 04:56:52;;;;;;;3.37;3.07;;;;;19.00;101088.00;;;;2079318;28;20308;-67
2021/04/26 04:57:52;;;;;;;4.97;3.55;;;;;19.00;101088.00;;;;2070419;28;20245;-67
2021/04/26 04:58:52;;;;;;;4.00;3.23;;;;;19.00;101087.00;;;;2069550;28;20309;-67
2021/04/26 04:59:53;;;;;;;3.90;2.93;;;;;19.00;101092.00;;;;2079037;28;20206;-67
2021/04/26 05:00:53;;;;;;;4.33;3.70;;;;;19.00;101093.00;;;;2079262;28;20217;-66
2021/04/26 05:01:53;;;;;;;3.73;3.43;;;;;19.00;101092.00;;;;2079390;28;20206;-68
2021/04/26 05:02:54;;;;;;;3.70;3.40;;;;;19.00;101090.00;;;;2079374;28;20308;-66
2021/04/26 05:03:54;;;;;;;4.20;3.40;;;;;19.00;101086.00;;;;2078725;28;20218;-67
2021/04/26 05:04:54;;;;;;;3.77;3.37;;;;;19.00;101088.00;;;;2079145;28;20276;-67
2021/04/26 05:05:55;;;;;;;3.37;3.07;;;;;19.00;101093.00;;;;2079175;28;20244;-67